Time;durP1;ratioP1;P1;durP2;ratioP2;P2;SDS_P1;SDS_P2;PMS_P1;PMS_P2;Temp;Humidity;BMP_temperature;BMP_pressure;BME280_temperature;BME280_humidity;BME280_pressure;Samples;Min_cycle;Max_cycle;Signal;HPM_P1;HPM_P2
2021/08/25 00:17:19;;;;;;;;;;;;;;;;;;;;;
2021/08/25 00:31:19;;;;;;;;;;;;;;;;;;;;;
2021/08/25 01:03:14;;;;;;;38.03;21.77;;;;;;;13.09;99.27;102838.13;5894620;24;20074;-86
2021/08/25 01:28:21;;;;;;;41.22;23.42;;;;;;;12.93;100.00;102833.09;5971141;24;20020;-88
2021/08/25 01:35:21;;;;;;;;;;;;;;;;;;;;;
2021/08/25 01:53:35;;;;;;;40.05;23.35;;;;;;;12.75;100.00;102823.59;5930971;23;20106;-86
2021/08/25 02:00:44;;;;;;;48.03;25.55;;;;;;;12.73;100.00;102805.91;5996759;23;20496;-82
2021/08/25 02:04:09;;;;;;;45.65;25.52;;;;;;;12.69;100.00;102799.56;6012205;23;20007;-86
2021/08/25 02:07:16;;;;;;;46.97;24.27;;;;;;;12.62;100.00;102797.53;6065812;23;20006;-86
2021/08/25 02:10:41;;;;;;;;;;;;;;;;;;;;;
2021/08/25 02:14:08;;;;;;;50.55;25.45;;;;;;;12.56;100.00;102789.38;6009348;23;20022;-84
2021/08/25 02:17:08;;;;;;;55.75;28.80;;;;;;;12.52;100.00;102788.38;6007928;23;20349;-84
2021/08/25 02:23:39;;;;;;;43.17;24.70;;;;;;;12.51;100.00;102786.56;6070941;23;20069;-82
2021/08/25 02:27:01;;;;;;;51.40;25.47;;;;;;;12.50;100.00;102784.75;6071105;23;20025;-82
2021/08/25 02:33:23;;;;;;;47.03;23.33;;;;;;;12.44;100.00;102777.50;6082494;23;20010;-86
2021/08/25 02:50:03;;;;;;;79.22;31.50;;;;;;;12.48;100.00;102771.50;5977237;23;20020;-83
2021/08/25 02:53:16;;;;;;;71.60;29.90;;;;;;;12.52;100.00;102768.97;5950273;24;20012;-86
2021/08/25 02:56:45;;;;;;;60.30;29.30;;;;;;;12.56;100.00;102758.59;5965363;23;20120;-83
2021/08/25 03:00:17;;;;;;;;;;;;;;;;;;;;;
2021/08/25 03:03:18;;;;;;;;;;;;;;;;;;;;;
2021/08/25 03:06:26;;;;;;;;;;;;;;;;;;;;;
2021/08/25 03:09:37;;;;;;;56.45;27.85;;;;;;;12.48;100.00;102753.00;6098025;23;20038;-81
2021/08/25 03:16:07;;;;;;;64.00;29.13;;;;;;;12.43;100.00;102751.91;6051381;23;20342;-86
2021/08/25 03:19:06;;;;;;;71.03;33.38;;;;;;;12.44;100.00;102748.44;6075156;23;20085;-85
2021/08/25 03:22:28;;;;;;;70.25;32.13;;;;;;;12.45;100.00;102755.53;6125660;23;20096;-83
2021/08/25 03:29:01;;;;;;;74.57;32.72;;;;;;;12.50;100.00;102749.53;6106070;23;20006;-84
2021/08/25 03:32:19;;;;;;;74.45;35.38;;;;;;;12.51;100.00;102740.75;6122453;23;20005;-85
2021/08/25 03:35:58;;;;;;;85.78;36.10;;;;;;;12.54;100.00;102744.41;6126464;23;20075;-85
2021/08/25 03:39:12;;;;;;;;;;;;;;;;;;;;;
2021/08/25 03:45:58;;;;;;;103.20;40.65;;;;;;;12.68;100.00;102737.03;6084793;23;20438;-83
2021/08/25 03:48:41;;;;;;;102.63;41.40;;;;;;;12.74;100.00;102733.75;6125779;23;20010;-83
2021/08/25 03:51:35;;;;;;;103.47;42.72;;;;;;;12.77;100.00;102728.56;6125964;23;20077;-82
2021/08/25 03:54:28;;;;;;;108.45;44.00;;;;;;;12.81;100.00;102731.38;6082830;23;20010;-83
2021/08/25 03:57:01;;;;;;;120.85;44.03;;;;;;;12.87;100.00;102732.44;6091424;23;20108;-83
2021/08/25 03:59:52;;;;;;;122.40;46.03;;;;;;;12.92;100.00;102729.13;6094406;23;20018;-82
2021/08/25 04:02:41;;;;;;;139.02;48.08;;;;;;;12.96;100.00;102727.50;6108009;23;20016;-85
2021/08/25 04:05:42;;;;;;;117.88;45.70;;;;;;;13.01;100.00;102723.28;6122295;23;20006;-84
2021/08/25 04:08:56;;;;;;;118.25;44.35;;;;;;;13.04;100.00;102726.03;6123969;23;20040;-84
2021/08/25 04:11:52;;;;;;;131.63;47.67;;;;;;;13.06;100.00;102716.44;6108884;23;20061;-86
2021/08/25 04:14:40;;;;;;;117.28;44.95;;;;;;;13.08;100.00;102712.09;6125164;23;20110;-81
2021/08/25 04:17:08;;;;;;;143.18;49.95;;;;;;;13.11;100.00;102711.31;6128162;23;20426;-85
2021/08/25 04:20:00;;;;;;;136.13;49.78;;;;;;;13.14;100.00;102703.47;6119375;23;20157;-83
2021/08/25 04:22:40;;;;;;;157.88;53.65;;;;;;;13.16;100.00;102710.63;6126743;23;20417;-83
2021/08/25 04:25:30;;;;;;;145.38;51.42;;;;;;;13.18;100.00;102705.38;6124058;23;20014;-81
2021/08/25 04:28:23;;;;;;;147.10;52.40;;;;;;;13.23;100.00;102708.22;6125820;23;20078;-82
2021/08/25 04:31:35;;;;;;;162.32;53.35;;;;;;;13.26;100.00;102705.69;6123071;23;20017;-84
2021/08/25 04:34:07;;;;;;;156.15;51.88;;;;;;;13.30;100.00;102707.56;6127244;23;20010;-83
2021/08/25 04:37:18;;;;;;;182.43;55.80;;;;;;;13.32;100.00;102705.88;6115329;23;20025;-84
2021/08/25 04:40:15;;;;;;;183.85;56.15;;;;;;;13.38;100.00;102710.53;6126214;23;20350;-83
2021/08/25 04:42:49;;;;;;;210.07;57.65;;;;;;;13.41;100.00;102703.59;6126365;23;20413;-84
2021/08/25 04:45:46;;;;;;;186.77;58.05;;;;;;;13.45;100.00;102710.78;6126955;23;20010;-82
2021/08/25 04:48:19;;;;;;;260.60;58.28;;;;;;;13.48;100.00;102705.63;6092301;23;20085;-82
2021/08/25 04:50:50;;;;;;;280.60;60.53;;;;;;;13.53;100.00;102704.88;6125685;23;20017;-82
2021/08/25 04:53:42;;;;;;;312.42;60.40;;;;;;;13.56;100.00;102710.25;6125145;23;20010;-83
2021/08/25 04:56:12;;;;;;;363.33;60.17;;;;;;;13.59;100.00;102707.72;6077973;23;20013;-82
2021/08/25 04:59:16;;;;;;;247.30;57.45;;;;;;;13.62;100.00;102708.72;6128120;23;20006;-84
2021/08/25 05:02:04;;;;;;;238.30;52.17;;;;;;;13.67;100.00;102708.88;6123105;23;20438;-82
2021/08/25 05:05:00;;;;;;;259.23;55.42;;;;;;;13.68;100.00;102710.69;6126561;23;20013;-83
2021/08/25 05:07:32;;;;;;;404.55;59.28;;;;;;;13.68;100.00;102704.50;6126551;23;20006;-83
2021/08/25 05:10:17;;;;;;;402.65;53.83;;;;;;;13.74;100.00;102705.59;6126521;23;20010;-82
2021/08/25 05:13:04;;;;;;;512.70;56.80;;;;;;;13.68;100.00;102700.09;6124430;23;20016;-84
2021/08/25 05:15:29;;;;;;;195.20;51.83;;;;;;;13.68;100.00;102702.75;6126206;23;20481;-85
2021/08/25 05:17:55;;;;;;;192.88;52.67;;;;;;;13.71;100.00;102700.19;6126338;23;20006;-82
2021/08/25 05:21:00;;;;;;;264.17;53.92;;;;;;;13.73;100.00;102698.50;6125002;23;20038;-85
2021/08/25 05:24:01;;;;;;;287.00;51.85;;;;;;;13.77;100.00;102705.69;6126994;23;20017;-85
2021/08/25 05:26:28;;;;;;;234.13;51.50;;;;;;;13.80;100.00;102705.78;6126512;23;20383;-85
2021/08/25 05:28:57;;;;;;;312.27;54.58;;;;;;;13.82;100.00;102714.69;6124679;23;20014;-83
2021/08/25 05:31:46;;;;;;;361.45;56.25;;;;;;;13.87;100.00;102711.31;6124773;23;20041;-80
2021/08/25 05:34:16;;;;;;;241.98;53.92;;;;;;;13.88;100.00;102705.16;6122802;23;20002;-82
2021/08/25 05:36:41;;;;;;;247.10;55.75;;;;;;;13.93;100.00;102704.47;6126429;23;20009;-84
2021/08/25 05:39:11;;;;;;;241.63;54.72;;;;;;;13.99;100.00;102703.75;6125262;23;20018;-82
2021/08/25 05:41:47;;;;;;;331.58;76.68;;;;;;;14.05;100.00;102705.69;6127037;23;20002;-86
2021/08/25 05:44:12;;;;;;;259.27;76.32;;;;;;;14.13;100.00;102697.16;6101275;23;20014;-81
2021/08/25 05:46:55;;;;;;;314.50;77.15;;;;;;;14.18;100.00;102699.94;6125515;23;20501;-81
2021/08/25 05:49:21;;;;;;;275.80;63.85;;;;;;;14.24;100.00;102712.47;6124655;23;20006;-81
2021/08/25 05:51:56;;;;;;;179.30;59.83;;;;;;;14.27;100.00;102702.91;6124279;23;20069;-83
2021/08/25 05:54:25;;;;;;;308.80;53.15;;;;;;;14.29;100.00;102700.28;6124648;23;20438;-83
2021/08/25 05:56:50;;;;;;;200.65;51.28;;;;;;;14.33;100.00;102696.88;6125568;23;20014;-85
2021/08/25 05:59:18;;;;;;;200.65;53.20;;;;;;;14.36;100.00;102706.69;6125855;23;20486;-83
2021/08/25 06:01:49;;;;;;;369.42;52.35;;;;;;;14.36;100.00;102704.03;6121202;23;20096;-82
2021/08/25 06:04:18;;;;;;;189.05;48.10;;;;;;;14.43;100.00;102712.22;6124718;23;20088;-81
2021/08/25 06:07:03;;;;;;;183.75;48.90;;;;;;;14.53;100.00;102709.81;6125305;23;20323;-82
2021/08/25 06:09:31;;;;;;;223.15;48.40;;;;;;;14.47;100.00;102706.16;6125263;23;20009;-82
2021/08/25 06:12:04;;;;;;;144.82;45.80;;;;;;;14.52;100.00;102708.06;6124092;23;20010;-82
2021/08/25 06:14:32;;;;;;;180.25;46.03;;;;;;;14.58;100.00;102701.19;6124601;23;20006;-85
2021/08/25 06:17:01;;;;;;;121.72;48.03;;;;;;;14.62;100.00;102699.50;6126429;23;20009;-82
2021/08/25 06:19:29;;;;;;;210.38;45.53;;;;;;;14.68;100.00;102705.03;6113871;23;20508;-85
2021/08/25 06:21:55;;;;;;;147.77;46.47;;;;;;;14.74;100.00;102705.19;6124332;23;20069;-82
2021/08/25 06:24:23;;;;;;;99.75;41.10;;;;;;;14.80;100.00;102705.38;6120814;23;20036;-82
2021/08/25 06:26:54;;;;;;;110.10;41.40;;;;;;;14.88;100.00;102704.69;6124067;23;20009;-82
2021/08/25 06:29:20;;;;;;;90.35;44.85;;;;;;;14.97;100.00;102711.16;6123331;23;20501;-84
2021/08/25 06:32:07;;;;;;;138.48;39.35;;;;;;;15.02;100.00;102706.00;6122360;23;20033;-82
2021/08/25 06:34:48;;;;;;;122.07;37.97;;;;;;;15.08;100.00;102703.50;6122698;23;20026;-84
2021/08/25 06:37:26;;;;;;;124.75;37.50;;;;;;;15.10;100.00;102708.88;6120925;23;20069;-86
2021/08/25 06:40:14;;;;;;;112.15;34.42;;;;;;;15.09;100.00;102707.97;6121631;23;20021;-84
2021/08/25 06:43:00;;;;;;;130.77;36.60;;;;;;;15.09;100.00;102705.31;6095509;23;20017;-84
2021/08/25 06:45:48;;;;;;;97.22;37.10;;;;;;;15.27;100.00;102715.50;6120052;23;20017;-82
2021/08/25 06:48:16;;;;;;;93.50;35.60;;;;;;;15.30;100.00;102712.97;6120655;23;20110;-82
2021/08/25 06:51:28;;;;;;;89.75;36.20;;;;;;;15.36;100.00;102711.34;6122082;23;20106;-82
2021/08/25 06:54:15;;;;;;;111.53;35.05;;;;;;;15.37;99.74;102716.69;6123814;23;20021;-83
2021/08/25 06:57:28;;;;;;;74.18;35.25;;;;;;;15.40;100.00;102721.19;6123392;23;20073;-84
2021/08/25 07:00:23;;;;;;;67.00;33.75;;;;;;;15.36;99.57;102719.31;6122482;23;20093;-83
2021/08/25 07:06:41;;;;;;;58.38;33.35;;;;;;;15.48;99.14;102712.56;6004295;23;20020;-82
2021/08/25 07:09:10;;;;;;;57.28;32.65;;;;;;;15.58;99.23;102710.13;6003647;23;20023;-83
2021/08/25 07:11:35;;;;;;;56.30;33.63;;;;;;;15.56;98.57;102711.84;6058304;23;20014;-79
2021/08/25 07:14:02;;;;;;;53.35;32.35;;;;;;;15.57;98.16;102713.66;6121647;23;20009;-74
2021/08/25 07:16:27;;;;;;;40.28;28.58;;;;;;;15.73;98.12;102706.97;6120657;23;20077;-78
2021/08/25 07:18:53;;;;;;;45.08;30.35;;;;;;;15.89;97.98;102708.31;6122702;23;20033;-80
2021/08/25 07:21:18;;;;;;;44.45;30.02;;;;;;;15.97;96.37;102710.25;6096514;23;20038;-79
2021/08/25 07:23:48;;;;;;;41.00;28.30;;;;;;;16.17;96.68;102704.56;6123095;23;20405;-78
2021/08/25 07:26:13;;;;;;;42.45;28.73;;;;;;;16.23;94.75;102709.09;6121070;23;20010;-80
2021/08/25 07:28:43;;;;;;;47.22;29.98;;;;;;;16.13;95.54;102708.88;6121201;23;20001;-80
2021/08/25 07:31:09;;;;;;;44.10;29.40;;;;;;;16.10;96.02;102715.88;6119959;23;20353;-80
2021/08/25 07:33:34;;;;;;;48.35;29.05;;;;;;;16.02;94.48;102713.06;6120169;23;20018;-78
2021/08/25 07:36:00;;;;;;;44.72;27.85;;;;;;;15.99;94.61;102712.97;6118800;23;20077;-81
2021/08/25 07:38:26;;;;;;;47.15;30.58;;;;;;;16.07;95.76;102715.81;6120093;23;20013;-82
2021/08/25 07:40:55;;;;;;;48.45;30.52;;;;;;;16.21;96.03;102710.81;6120850;23;20080;-82
2021/08/25 07:43:44;;;;;;;43.50;28.83;;;;;;;16.43;94.52;102712.22;6096047;23;20333;-82
2021/08/25 07:46:40;;;;;;;42.20;27.38;;;;;;;16.61;93.07;102701.09;6123231;23;20006;-86
2021/08/25 07:49:06;;;;;;;40.60;27.13;;;;;;;16.79;92.59;102704.13;6112546;23;20017;-80
2021/08/25 07:51:34;;;;;;;38.88;26.85;;;;;;;16.97;91.78;102700.06;6124106;23;20002;-82
2021/08/25 07:54:01;;;;;;;40.28;27.52;;;;;;;17.04;91.00;102694.00;6123876;23;20006;-79
2021/08/25 07:56:26;;;;;;;38.00;26.33;;;;;;;17.19;91.37;102699.63;6123698;23;20010;-77
2021/08/25 07:58:52;;;;;;;39.10;27.77;;;;;;;17.29;89.54;102691.81;6122496;23;20473;-78
2021/08/25 08:01:33;;;;;;;32.33;24.33;;;;;;;17.66;89.32;102692.44;6114202;23;20010;-76
2021/08/25 08:04:03;;;;;;;32.15;22.83;;;;;;;17.97;87.66;102682.31;6112319;23;20032;-79
2021/08/25 08:06:34;;;;;;;33.80;24.63;;;;;;;18.10;86.75;102684.31;6119540;23;20457;-83
2021/08/25 08:09:44;;;;;;;33.17;23.55;;;;;;;18.29;85.66;102689.91;6122186;23;20377;-84
2021/08/25 08:12:31;;;;;;;;;;;;;;;;;;;;;
2021/08/25 08:15:12;;;;;;;27.55;21.88;;;;;;;18.20;84.58;102675.59;6118848;23;20060;-84
2021/08/25 08:25:32;;;;;;;26.50;19.65;;;;;;;18.69;83.63;102674.41;6123646;23;20024;-84
2021/08/25 08:27:58;;;;;;;25.17;20.88;;;;;;;18.80;83.44;102678.13;6114127;23;20101;-83
2021/08/25 08:30:27;;;;;;;25.23;16.95;;;;;;;18.89;82.46;102668.47;6117990;23;20021;-83
2021/08/25 08:32:55;;;;;;;18.63;15.95;;;;;;;19.25;79.84;102664.38;6119987;23;20018;-82
2021/08/25 08:35:33;;;;;;;22.05;17.65;;;;;;;19.72;80.63;102663.91;6121100;23;20583;-85
2021/08/25 08:38:13;;;;;;;17.73;13.77;;;;;;;19.99;76.56;102651.66;6095807;23;20021;-85
2021/08/25 08:40:45;;;;;;;15.25;11.00;;;;;;;19.99;71.44;102640.97;6117657;23;20460;-81
2021/08/25 08:43:34;;;;;;;;;;;;;;;19.91;71.73;102640.91;6121401;23;20452;-82
2021/08/25 08:46:06;;;;;;;18.50;11.55;;;;;;;19.86;71.72;102642.69;6124454;23;20288;-84
2021/08/25 08:48:34;;;;;;;13.32;11.65;;;;;;;19.95;71.42;102647.19;6123341;23;20010;-83
2021/08/25 08:51:16;;;;;;;19.45;12.32;;;;;;;20.12;73.34;102645.50;6100395;23;20389;-83
2021/08/25 08:54:35;;;;;;;;;;;;;;;;;;;;;
2021/08/25 08:57:44;;;;;;;;;;;;;;;;;;;;;
2021/08/25 09:00:43;;;;;;;14.00;10.77;;;;;;;20.41;67.82;102625.16;6119239;23;20018;-82
2021/08/25 09:03:37;;;;;;;17.42;11.10;;;;;;;20.49;68.59;102636.78;6115097;23;20014;-84
2021/08/25 09:06:32;;;;;;;16.75;12.30;;;;;;;20.47;67.78;102631.41;6115627;23;20006;-83
2021/08/25 09:09:01;;;;;;;14.73;10.95;;;;;;;20.98;66.78;102631.56;6119865;23;20014;-82
2021/08/25 09:11:32;;;;;;;13.35;10.50;;;;;;;21.34;65.32;102620.91;6124577;23;20039;-81
2021/08/25 09:22:00;;;;;;;11.75;8.45;;;;;;;20.89;66.87;102616.41;6113679;23;20100;-82
2021/08/25 09:25:04;;;;;;;11.63;7.50;;;;;;;21.37;63.62;102608.41;6124268;23;20013;-83
2021/08/25 09:28:11;;;;;;;11.60;7.43;;;;;;;21.26;62.68;102601.28;6123132;23;20018;-85
2021/08/25 09:31:12;;;;;;;11.32;8.23;;;;;;;21.56;61.63;102603.06;6124236;23;20022;-83
2021/08/25 09:34:01;;;;;;;9.88;7.28;;;;;;;21.88;61.93;102597.66;6099266;23;20013;-82
2021/08/25 09:37:29;;;;;;;;;;;;;;;;;;;;;
2021/08/25 09:40:51;;;;;;;8.27;6.63;;;;;;;23.19;56.68;102589.84;6034746;23;20055;-85
2021/08/25 09:44:13;;;;;;;8.05;5.55;;;;;;;23.76;52.17;102567.78;6063170;23;20077;-84
2021/08/25 09:51:01;;;;;;;9.10;5.32;;;;;;;24.00;53.94;102588.16;6033684;23;20094;-83
2021/08/25 09:53:54;;;;;;;6.13;4.13;;;;;;;24.06;53.47;102589.88;6093543;23;20014;-84
2021/08/25 09:56:52;;;;;;;9.07;4.72;;;;;;;25.01;50.92;102584.09;6109373;23;20094;-83
2021/08/25 09:59:24;;;;;;;8.93;5.18;;;;;;;25.92;47.66;102575.28;6119711;23;20010;-82
2021/08/25 10:02:26;;;;;;;6.07;3.80;;;;;;;25.75;51.95;102585.53;6115479;23;20492;-84
2021/08/25 10:05:28;;;;;;;6.30;4.25;;;;;;;24.54;50.28;102579.41;6123837;23;20098;-85
2021/08/25 10:08:27;;;;;;;7.90;4.10;;;;;;;24.54;49.93;102579.41;6123809;23;20014;-84
2021/08/25 10:11:29;;;;;;;7.07;3.70;;;;;;;25.55;46.78;102567.91;6107495;23;20437;-84
2021/08/25 10:14:21;;;;;;;7.50;3.80;;;;;;;26.11;46.00;102560.56;6120477;23;20336;-83
2021/08/25 10:17:29;;;;;;;8.98;3.90;;;;;;;26.52;44.25;102559.63;6118454;23;20028;-85
2021/08/25 10:24:06;;;;;;;10.10;4.28;;;;;;;27.88;43.07;102545.34;6122195;23;20089;-85
2021/08/25 10:27:36;;;;;;;;;;;;;;;;;;;;;
2021/08/25 10:41:43;;;;;;;;;;;;;;;;;;;;;
2021/08/25 10:45:06;;;;;;;5.75;2.92;;;;;;;22.02;55.80;102524.34;5978816;24;20069;-84
2021/08/25 10:48:09;;;;;;;6.40;2.72;;;;;;;21.98;59.36;102538.66;5971108;23;20088;-84
2021/08/25 10:51:14;;;;;;;5.05;2.95;;;;;;;23.53;52.13;102523.25;6027421;23;20007;-87
2021/08/25 10:54:18;;;;;;;4.50;2.30;;;;;;;25.36;49.71;102509.88;6034072;23;20012;-84
2021/08/25 11:00:40;;;;;;;5.88;2.70;;;;;;;27.50;43.49;102500.47;6036485;23;20372;-85
2021/08/25 11:11:10;;;;;;;4.57;2.40;;;;;;;25.77;45.95;102485.72;5870769;24;20036;-81
2021/08/25 11:13:44;;;;;;;3.15;2.00;;;;;;;26.38;44.73;102472.69;5975113;23;20098;-82
2021/08/25 11:16:36;;;;;;;6.55;2.30;;;;;;;27.08;44.03;102474.56;6118257;23;20013;-81
2021/08/25 11:19:02;;;;;;;8.93;3.17;;;;;;;26.97;44.27;102465.84;6127040;23;20418;-79
2021/08/25 11:21:27;;;;;;;4.53;1.83;;;;;;;27.47;43.08;102474.41;6097707;23;20017;-79
2021/08/25 11:23:55;;;;;;;5.78;2.05;;;;;;;27.36;42.40;102462.97;6124774;23;20013;-80
2021/08/25 11:26:40;;;;;;;4.15;1.98;;;;;;;28.71;42.71;102459.78;6123916;23;20069;-79
2021/08/25 11:29:19;;;;;;;6.43;2.10;;;;;;;28.52;43.18;102467.63;6123720;23;20068;-80
2021/08/25 11:31:45;;;;;;;6.65;2.00;;;;;;;28.20;39.93;102454.19;6124256;23;20433;-81
2021/08/25 11:34:33;;;;;;;5.00;2.15;;;;;;;28.78;41.77;102455.91;6125615;23;20017;-82
2021/08/25 11:37:03;;;;;;;7.00;2.20;;;;;;;28.95;40.64;102447.19;6124244;23;20434;-80
2021/08/25 11:39:37;;;;;;;5.18;1.80;;;;;;;27.80;42.36;102455.41;6123491;23;20429;-84
2021/08/25 11:42:03;;;;;;;7.05;1.90;;;;;;;26.95;44.71;102460.47;6125019;23;20072;-79
2021/08/25 11:44:43;;;;;;;9.50;2.13;;;;;;;27.05;45.49;102447.63;6123521;23;20045;-80
2021/08/25 11:47:20;;;;;;;7.10;2.30;;;;;;;26.22;46.88;102446.06;6124294;23;20021;-83
2021/08/25 11:49:57;;;;;;;6.30;2.00;;;;;;;26.35;46.29;102443.94;6121104;23;20463;-80
2021/08/25 11:52:34;;;;;;;4.20;1.77;;;;;;;26.21;48.27;102454.22;6119773;23;20081;-74
2021/08/25 11:55:31;;;;;;;4.32;1.83;;;;;;;26.39;45.44;102445.66;6124055;23;20089;-83
2021/08/25 11:57:57;;;;;;;2.25;1.60;;;;;;;25.57;45.83;102444.78;6117653;23;20548;-81
2021/08/25 12:08:08;;;;;;;3.08;1.65;;;;;;;25.92;47.11;102440.44;5903515;24;20092;-82
2021/08/25 12:11:06;;;;;;;3.72;1.70;;;;;;;26.62;48.82;102441.50;5900133;24;20024;-82
2021/08/25 12:14:20;;;;;;;3.30;1.60;;;;;;;26.78;43.42;102433.03;5883349;24;20025;-84
2021/08/25 12:17:06;;;;;;;4.80;1.77;;;;;;;26.38;42.79;102432.19;5881547;24;20067;-83
2021/08/25 12:20:01;;;;;;;3.17;1.58;;;;;;;26.41;44.24;102440.22;5870976;24;20043;-85
2021/08/25 12:26:03;;;;;;;11.30;2.08;;;;;;;26.44;42.08;102423.97;5799261;24;20018;-82
2021/08/25 12:29:19;;;;;;;2.70;1.73;;;;;;;26.28;42.81;102414.47;5838442;24;20018;-86
2021/08/25 12:35:00;;;;;;;2.92;1.17;;;;;;;26.17;42.69;102421.00;5845555;24;20005;-80
2021/08/25 12:37:56;;;;;;;6.20;1.63;;;;;;;25.98;43.91;102420.53;5955911;23;20442;-83
2021/08/25 12:41:15;;;;;;;2.80;1.20;;;;;;;25.64;42.70;102418.59;6004564;23;20031;-84
2021/08/25 12:55:15;;;;;;;;;;;;;;;;;;;;;
2021/08/25 13:04:45;;;;;;;2.25;0.88;;;;;;;25.30;43.77;102389.63;6041510;23;20076;-84
2021/08/25 13:07:36;;;;;;;4.32;0.90;;;;;;;25.64;41.51;102379.94;6036431;23;20027;-84
2021/08/25 13:10:48;;;;;;;1.15;0.70;;;;;;;25.52;42.36;102384.69;5884685;24;20057;-85
2021/08/25 13:14:08;;;;;;;0.98;0.70;;;;;;;24.95;45.52;102396.59;5973087;24;20015;-85
2021/08/25 13:16:51;;;;;;;0.93;0.70;;;;;;;25.15;44.11;102393.50;5969195;24;20024;-83
2021/08/25 13:19:57;;;;;;;1.55;0.73;;;;;;;25.11;45.39;102380.13;5958407;24;20064;-84
2021/08/25 13:26:48;;;;;;;;;;;;;;;;;;;;;
2021/08/25 13:29:33;;;;;;;1.08;0.60;;;;;;;24.69;44.26;102357.56;5841922;24;20030;-86
2021/08/25 13:33:07;;;;;;;;;;;;;;;;;;;;;
2021/08/25 13:36:40;;;;;;;;;;;;;;;;;;;;;
2021/08/25 13:47:02;;;;;;;1.95;0.77;;;;;;;22.40;52.04;102362.34;5908054;24;20013;-87
2021/08/25 13:50:25;;;;;;;1.98;0.90;;;;;;;22.60;51.11;102375.59;5922722;24;20017;-86
2021/08/25 13:53:11;;;;;;;1.13;0.45;;;;;;;22.40;53.38;102365.03;5947427;24;20013;-85
2021/08/25 13:56:27;;;;;;;1.13;0.60;;;;;;;23.15;50.49;102379.50;5953733;24;20436;-88
2021/08/25 14:02:12;;;;;;;1.98;0.50;;;;;;;22.11;54.03;102371.50;5986226;23;20083;-84
2021/08/25 14:05:11;;;;;;;3.08;0.60;;;;;;;22.06;55.58;102373.31;5978030;24;20019;-85
2021/08/25 14:19:18;;;;;;;0.70;0.50;;;;;;;21.14;59.07;102355.91;5985692;23;20012;-86
2021/08/25 14:22:05;;;;;;;1.10;0.50;;;;;;;21.03;60.69;102359.47;5987482;23;20488;-86
2021/08/25 14:37:02;;;;;;;;;;;;;;;;;;;;;
2021/08/25 14:39:30;;;;;;;1.45;0.40;;;;;;;20.86;61.35;102338.13;6058720;23;20010;-85
2021/08/25 14:41:56;;;;;;;1.42;0.45;;;;;;;21.08;62.41;102334.50;6091094;23;20012;-79
2021/08/25 14:45:00;;;;;;;;;;;;;;;;;;;;;
2021/08/25 14:47:36;;;;;;;0.40;0.30;;;;;;;21.07;61.77;102330.94;6093687;23;20025;-82
2021/08/25 14:50:41;;;;;;;1.58;0.43;;;;;;;21.00;62.02;102334.53;6094467;23;20010;-82
2021/08/25 14:56:49;;;;;;;0.90;0.50;;;;;;;20.39;63.76;102326.56;5995192;23;20056;-81
2021/08/25 15:03:33;;;;;;;1.55;0.50;;;;;;;20.66;64.00;102326.53;5954757;23;20089;-82
2021/08/25 15:06:10;;;;;;;;;;;;;;;;;;;;;
2021/08/25 15:08:41;;;;;;;0.68;0.43;;;;;;;20.52;64.52;102330.13;6092836;23;20105;-84
2021/08/25 15:11:39;;;;;;;0.32;0.32;;;;;;;20.42;62.22;102317.66;6077851;23;20026;-86
2021/08/25 15:14:04;;;;;;;1.85;0.32;;;;;;;20.67;63.60;102314.94;6093262;23;20014;-80
2021/08/25 15:16:42;;;;;;;0.73;0.35;;;;;;;21.03;59.08;102311.31;6094370;23;20457;-84
2021/08/25 15:19:07;;;;;;;0.85;0.40;;;;;;;20.81;59.57;102310.50;6092321;23;20044;-84
2021/08/25 15:21:33;;;;;;;0.30;0.30;;;;;;;20.60;59.68;102315.84;6111375;23;20068;-81
2021/08/25 15:23:58;;;;;;;0.30;0.30;;;;;;;20.49;62.22;102310.53;6122805;23;20060;-81
2021/08/25 15:26:26;;;;;;;0.17;0.17;;;;;;;20.58;62.93;102317.63;6121561;23;20006;-80
2021/08/25 15:29:04;;;;;;;0.60;0.40;;;;;;;20.38;62.45;102310.53;6120935;23;20534;-83
2021/08/25 15:31:31;;;;;;;1.25;0.50;;;;;;;20.30;64.57;102320.34;6117948;23;20092;-81
2021/08/25 15:33:59;;;;;;;0.30;0.30;;;;;;;20.12;63.94;102313.22;6120556;23;20018;-81
2021/08/25 15:36:25;;;;;;;0.63;0.50;;;;;;;19.91;64.72;102308.75;6120028;23;20076;-80
2021/08/25 15:38:55;;;;;;;0.82;0.30;;;;;;;19.82;64.63;102309.63;6122876;23;20062;-82
2021/08/25 15:41:21;;;;;;;0.60;0.30;;;;;;;19.59;66.50;102306.84;6125678;23;20041;-80
2021/08/25 15:43:48;;;;;;;0.60;0.45;;;;;;;19.38;67.19;102303.25;6096787;23;20610;-79
2021/08/25 15:46:14;;;;;;;0.50;0.40;;;;;;;19.25;68.88;102312.09;6123308;23;20014;-81
2021/08/25 15:48:46;;;;;;;1.42;0.80;;;;;;;19.02;69.37;102308.44;6125462;23;20012;-83
2021/08/25 15:52:04;;;;;;;2.10;0.47;;;;;;;18.73;70.58;102302.91;6124429;23;20006;-87
2021/08/25 15:55:24;;;;;;;1.00;0.65;;;;;;;18.63;70.67;102309.97;6118606;23;20060;-85
2021/08/25 15:58:30;;;;;;;0.63;0.63;;;;;;;18.70;69.07;102300.22;6125634;23;20013;-86
2021/08/25 16:01:25;;;;;;;1.63;0.70;;;;;;;18.53;70.79;102298.34;6122312;23;20005;-85
2021/08/25 16:03:55;;;;;;;0.63;0.60;;;;;;;18.57;70.92;102307.28;6123492;23;20013;-86
2021/08/25 16:06:34;;;;;;;1.00;0.70;;;;;;;18.41;70.23;102300.94;6125371;23;20310;-84
2021/08/25 16:09:41;;;;;;;1.00;0.60;;;;;;;18.40;70.28;102304.47;6127616;23;20005;-83
2021/08/25 16:23:02;;;;;;;1.17;0.60;;;;;;;18.32;68.72;102282.22;5964799;24;20028;-83
2021/08/25 16:26:01;;;;;;;1.58;0.60;;;;;;;18.22;67.73;102275.91;5978017;24;20511;-86
2021/08/25 16:28:56;;;;;;;0.95;0.68;;;;;;;18.25;67.55;102272.38;5976045;24;20012;-84
2021/08/25 16:31:37;;;;;;;1.58;0.43;;;;;;;18.06;67.30;102272.22;5981595;24;20023;-86
2021/08/25 16:41:51;;;;;;;2.35;0.40;;;;;;;17.87;69.16;102253.38;5812326;24;20014;-85
2021/08/25 16:44:20;;;;;;;1.40;0.68;;;;;;;17.84;70.21;102258.69;5774881;24;20442;-88
2021/08/25 16:46:51;;;;;;;1.52;0.50;;;;;;;17.83;70.57;102254.25;5894726;24;20071;-87
2021/08/25 16:50:23;;;;;;;;;;;;;;;;;;;;;
2021/08/25 16:53:25;;;;;;;0.70;0.55;;;;;;;17.73;71.39;102252.38;6034409;23;20011;-82
2021/08/25 16:56:40;;;;;;;1.80;0.80;;;;;;;17.65;71.40;102238.13;6037838;23;20015;-84
2021/08/25 17:00:00;;;;;;;1.13;0.60;;;;;;;17.65;71.42;102238.13;6027626;23;20018;-85
2021/08/25 17:05:50;;;;;;;2.03;1.42;;;;;;;17.60;73.06;102234.50;6026270;23;20510;-83
2021/08/25 17:09:11;;;;;;;2.63;1.20;;;;;;;17.49;73.32;102232.63;6099411;23;20058;-85
2021/08/25 17:12:40;;;;;;;2.28;1.17;;;;;;;17.43;74.05;102237.91;6098156;23;20089;-86
2021/08/25 17:15:27;;;;;;;1.15;1.05;;;;;;;17.44;74.62;102234.34;6092964;23;20033;-86
2021/08/25 17:18:34;;;;;;;1.52;1.00;;;;;;;17.42;74.73;102229.91;6097651;23;20007;-86
2021/08/25 17:21:19;;;;;;;1.98;1.30;;;;;;;17.42;75.47;102236.09;6097025;23;20019;-85
2021/08/25 17:24:19;;;;;;;2.70;1.88;;;;;;;17.38;74.26;102223.66;6103884;23;20042;-85
2021/08/25 17:30:35;;;;;;;;;;;;;;;;;;;;;
2021/08/25 17:36:35;;;;;;;2.83;2.17;;;;;;;17.27;76.52;102220.88;6067621;23;20015;-86
2021/08/25 17:39:46;;;;;;;;;;;;;;;;;;;;;
2021/08/25 17:46:31;;;;;;;3.53;1.75;;;;;;;17.25;77.32;102201.31;6011156;23;20012;-86
2021/08/25 17:50:06;;;;;;;4.23;1.80;;;;;;;17.25;77.09;102211.09;5915085;24;20015;-88
2021/08/25 17:52:33;;;;;;;2.53;2.00;;;;;;;17.26;77.81;102215.53;5870577;24;20014;-86
2021/08/25 17:54:59;;;;;;;3.72;2.17;;;;;;;17.17;77.68;102208.34;6005680;23;20014;-82
2021/08/25 17:58:01;;;;;;;3.38;1.90;;;;;;;17.12;77.95;102208.28;6010204;23;20340;-84
2021/08/25 18:05:18;;;;;;;;;;;;;;;;;;;;;
2021/08/25 18:08:37;;;;;;;5.35;1.90;;;;;;;17.10;78.88;102196.72;6078444;23;20022;-85
2021/08/25 18:11:47;;;;;;;4.40;1.90;;;;;;;17.09;78.77;102200.28;6127868;23;20038;-85
2021/08/25 18:14:20;;;;;;;4.32;1.90;;;;;;;17.06;79.42;102196.69;6097650;23;20061;-83
2021/08/25 18:17:49;;;;;;;6.28;1.83;;;;;;;17.03;79.34;102195.78;6103121;23;20030;-85
2021/08/25 18:20:15;;;;;;;5.50;2.13;;;;;;;17.04;79.36;102194.03;6126677;23;20061;-84